sensor_id;sensor_type;location;lat;lon;timestamp;P1;durP1;ratioP1;P2;durP2;ratioP2
36833;SDS011;48003;52.084;5.224;2023-07-13T00:00:54;8.0;;;2.1;;
36833;SDS011;48003;52.084;5.224;2023-07-13T00:04:06;10.9;;;1.9;;
36833;SDS011;48003;52.084;5.224;2023-07-13T00:05:42;10.1;;;2.0;;
36833;SDS011;48003;52.084;5.224;2023-07-13T00:07:18;8.71;;;1.9;;
36833;SDS011;48003;52.084;5.224;2023-07-13T00:10:30;8.31;;;1.9;;
36833;SDS011;48003;52.084;5.224;2023-07-13T00:12:21;11.8;;;1.9;;
36833;SDS011;48003;52.084;5.224;2023-07-13T00:14:04;8.1;;;1.7;;
36833;SDS011;48003;52.084;5.224;2023-07-13T00:15:40;10.3;;;2.1;;
36833;SDS011;48003;52.084;5.224;2023-07-13T00:18:52;10.6;;;1.9;;
36833;SDS011;48003;52.084;5.224;2023-07-13T00:20:28;9.71;;;2.21;;
36833;SDS011;48003;52.084;5.224;2023-07-13T00:22:04;7.2;;;1.8;;
36833;SDS011;48003;52.084;5.224;2023-07-13T00:25:18;10.6;;;2.21;;
36833;SDS011;48003;52.084;5.224;2023-07-13T00:26:55;9.0;;;1.9;;
36833;SDS011;48003;52.084;5.224;2023-07-13T00:28:31;8.31;;;1.6;;
36833;SDS011;48003;52.084;5.224;2023-07-13T00:30:09;10.9;;;2.21;;
36833;SDS011;48003;52.084;5.224;2023-07-13T00:33:22;7.4;;;1.5;;
36833;SDS011;48003;52.084;5.224;2023-07-13T00:34:59;10.3;;;1.8;;
36833;SDS011;48003;52.084;5.224;2023-07-13T00:36:35;6.2;;;1.5;;
36833;SDS011;48003;52.084;5.224;2023-07-13T00:39:47;8.81;;;1.9;;
36833;SDS011;48003;52.084;5.224;2023-07-13T00:41:23;10.1;;;2.0;;
36833;SDS011;48003;52.084;5.224;2023-07-13T00:42:59;11.0;;;1.6;;
36833;SDS011;48003;52.084;5.224;2023-07-13T00:46:17;4.91;;;1.3;;
36833;SDS011;48003;52.084;5.224;2023-07-13T00:48:00;7.7;;;1.7;;
36833;SDS011;48003;52.084;5.224;2023-07-13T00:49:36;8.31;;;1.9;;
36833;SDS011;48003;52.084;5.224;2023-07-13T00:51:12;8.1;;;1.4;;
36833;SDS011;48003;52.084;5.224;2023-07-13T00:54:32;7.8;;;1.8;;
36833;SDS011;48003;52.084;5.224;2023-07-13T00:56:15;7.8;;;1.8;;
36833;SDS011;48003;52.084;5.224;2023-07-13T00:57:51;8.31;;;1.8;;
36833;SDS011;48003;52.084;5.224;2023-07-13T00:59:27;11.2;;;2.6;;
36833;SDS011;48003;52.084;5.224;2023-07-13T01:02:41;8.1;;;1.7;;
36833;SDS011;48003;52.084;5.224;2023-07-13T01:04:23;6.7;;;1.3;;
36833;SDS011;48003;52.084;5.224;2023-07-13T01:06:00;8.9;;;2.0;;
36833;SDS011;48003;52.084;5.224;2023-07-13T01:09:13;6.4;;;1.6;;
36833;SDS011;48003;52.084;5.224;2023-07-13T01:10:51;7.2;;;1.6;;
36833;SDS011;48003;52.084;5.224;2023-07-13T01:12:29;6.0;;;1.7;;
36833;SDS011;48003;52.084;5.224;2023-07-13T01:14:05;7.8;;;2.0;;
36833;SDS011;48003;52.084;5.224;2023-07-13T01:17:20;6.7;;;1.7;;
36833;SDS011;48003;52.084;5.224;2023-07-13T01:18:56;11.2;;;1.9;;
36833;SDS011;48003;52.084;5.224;2023-07-13T01:20:33;10.3;;;2.21;;
36833;SDS011;48003;52.084;5.224;2023-07-13T01:23:50;13.2;;;2.1;;
36833;SDS011;48003;52.084;5.224;2023-07-13T01:25:27;5.8;;;1.8;;
36833;SDS011;48003;52.084;5.224;2023-07-13T01:27:04;9.21;;;1.8;;
36833;SDS011;48003;52.084;5.224;2023-07-13T01:28:42;10.1;;;1.8;;
36833;SDS011;48003;52.084;5.224;2023-07-13T01:31:55;7.2;;;1.8;;
36833;SDS011;48003;52.084;5.224;2023-07-13T01:33:31;8.71;;;1.9;;
36833;SDS011;48003;52.084;5.224;2023-07-13T01:35:07;8.1;;;1.7;;
36833;SDS011;48003;52.084;5.224;2023-07-13T01:38:21;10.9;;;1.9;;
36833;SDS011;48003;52.084;5.224;2023-07-13T01:39:59;7.7;;;2.0;;
36833;SDS011;48003;52.084;5.224;2023-07-13T01:41:35;8.1;;;1.9;;
36833;SDS011;48003;52.084;5.224;2023-07-13T01:44:48;10.3;;;2.21;;
36833;SDS011;48003;52.084;5.224;2023-07-13T01:46:24;7.8;;;1.9;;
36833;SDS011;48003;52.084;5.224;2023-07-13T01:48:00;11.6;;;2.31;;
36833;SDS011;48003;52.084;5.224;2023-07-13T01:49:37;9.71;;;2.21;;
36833;SDS011;48003;52.084;5.224;2023-07-13T01:52:49;13.6;;;2.6;;
36833;SDS011;48003;52.084;5.224;2023-07-13T01:54:25;8.9;;;1.9;;
36833;SDS011;48003;52.084;5.224;2023-07-13T01:56:01;11.2;;;2.1;;
36833;SDS011;48003;52.084;5.224;2023-07-13T01:59:13;8.4;;;1.9;;
36833;SDS011;48003;52.084;5.224;2023-07-13T02:00:49;12.8;;;2.21;;
36833;SDS011;48003;52.084;5.224;2023-07-13T02:02:27;6.5;;;1.9;;
36833;SDS011;48003;52.084;5.224;2023-07-13T02:05:40;11.3;;;2.1;;
36833;SDS011;48003;52.084;5.224;2023-07-13T02:07:16;10.0;;;2.0;;
36833;SDS011;48003;52.084;5.224;2023-07-13T02:08:52;9.4;;;2.1;;
36833;SDS011;48003;52.084;5.224;2023-07-13T02:10:29;9.31;;;1.9;;
36833;SDS011;48003;52.084;5.224;2023-07-13T02:13:42;10.5;;;2.31;;
36833;SDS011;48003;52.084;5.224;2023-07-13T02:15:19;10.5;;;2.4;;
36833;SDS011;48003;52.084;5.224;2023-07-13T02:16:55;9.4;;;1.9;;
36833;SDS011;48003;52.084;5.224;2023-07-13T02:20:07;7.1;;;1.9;;
36833;SDS011;48003;52.084;5.224;2023-07-13T02:21:44;11.9;;;3.0;;
36833;SDS011;48003;52.084;5.224;2023-07-13T02:23:20;8.1;;;2.1;;
36833;SDS011;48003;52.084;5.224;2023-07-13T02:26:32;9.9;;;2.21;;
36833;SDS011;48003;52.084;5.224;2023-07-13T02:28:10;10.1;;;2.4;;
36833;SDS011;48003;52.084;5.224;2023-07-13T02:29:46;9.6;;;2.31;;
36833;SDS011;48003;52.084;5.224;2023-07-13T02:31:22;13.6;;;2.6;;
36833;SDS011;48003;52.084;5.224;2023-07-13T02:34:34;11.3;;;2.7;;
36833;SDS011;48003;52.084;5.224;2023-07-13T02:36:11;15.8;;;2.7;;
36833;SDS011;48003;52.084;5.224;2023-07-13T02:37:48;10.7;;;2.7;;
36833;SDS011;48003;52.084;5.224;2023-07-13T02:41:01;11.4;;;2.5;;
36833;SDS011;48003;52.084;5.224;2023-07-13T02:42:37;13.8;;;3.0;;
36833;SDS011;48003;52.084;5.224;2023-07-13T02:44:13;13.3;;;2.4;;
36833;SDS011;48003;52.084;5.224;2023-07-13T02:47:26;10.6;;;2.31;;
36833;SDS011;48003;52.084;5.224;2023-07-13T02:49:03;13.2;;;2.9;;
36833;SDS011;48003;52.084;5.224;2023-07-13T02:50:39;12.0;;;2.6;;
36833;SDS011;48003;52.084;5.224;2023-07-13T02:53:52;12.2;;;2.7;;
36833;SDS011;48003;52.084;5.224;2023-07-13T02:55:28;9.5;;;2.6;;
36833;SDS011;48003;52.084;5.224;2023-07-13T02:57:04;12.2;;;3.3;;
36833;SDS011;48003;52.084;5.224;2023-07-13T02:58:41;12.2;;;3.1;;
36833;SDS011;48003;52.084;5.224;2023-07-13T03:01:53;13.6;;;2.8;;
36833;SDS011;48003;52.084;5.224;2023-07-13T03:03:30;11.0;;;2.7;;
36833;SDS011;48003;52.084;5.224;2023-07-13T03:05:06;14.5;;;3.0;;
36833;SDS011;48003;52.084;5.224;2023-07-13T03:08:19;11.8;;;2.7;;
36833;SDS011;48003;52.084;5.224;2023-07-13T03:09:55;10.0;;;2.5;;
36833;SDS011;48003;52.084;5.224;2023-07-13T03:11:32;9.5;;;2.7;;
36833;SDS011;48003;52.084;5.224;2023-07-13T03:14:45;11.8;;;2.4;;
36833;SDS011;48003;52.084;5.224;2023-07-13T03:16:21;9.6;;;2.4;;
36833;SDS011;48003;52.084;5.224;2023-07-13T03:17:58;9.0;;;2.6;;
36833;SDS011;48003;52.084;5.224;2023-07-13T03:19:34;8.31;;;2.4;;
36833;SDS011;48003;52.084;5.224;2023-07-13T03:22:46;13.5;;;2.6;;
36833;SDS011;48003;52.084;5.224;2023-07-13T03:24:23;9.21;;;2.31;;
36833;SDS011;48003;52.084;5.224;2023-07-13T03:26:02;10.4;;;2.5;;
36833;SDS011;48003;52.084;5.224;2023-07-13T03:29:17;11.8;;;2.5;;
36833;SDS011;48003;52.084;5.224;2023-07-13T03:30:58;13.4;;;2.5;;
36833;SDS011;48003;52.084;5.224;2023-07-13T03:32:35;11.8;;;2.6;;
36833;SDS011;48003;52.084;5.224;2023-07-13T03:34:11;10.7;;;3.2;;
36833;SDS011;48003;52.084;5.224;2023-07-13T03:37:24;11.6;;;2.6;;
36833;SDS011;48003;52.084;5.224;2023-07-13T03:39:01;11.6;;;2.8;;
36833;SDS011;48003;52.084;5.224;2023-07-13T03:40:38;11.6;;;2.8;;
36833;SDS011;48003;52.084;5.224;2023-07-13T03:43:50;12.3;;;2.9;;
36833;SDS011;48003;52.084;5.224;2023-07-13T03:45:27;10.9;;;2.7;;
36833;SDS011;48003;52.084;5.224;2023-07-13T03:47:04;12.8;;;2.7;;
36833;SDS011;48003;52.084;5.224;2023-07-13T03:50:16;12.8;;;2.8;;
36833;SDS011;48003;52.084;5.224;2023-07-13T03:51:52;11.2;;;2.8;;
36833;SDS011;48003;52.084;5.224;2023-07-13T03:53:28;10.9;;;2.9;;
36833;SDS011;48003;52.084;5.224;2023-07-13T03:55:04;10.3;;;2.7;;
36833;SDS011;48003;52.084;5.224;2023-07-13T03:58:34;13.7;;;2.8;;
36833;SDS011;48003;52.084;5.224;2023-07-13T04:00:13;13.2;;;3.2;;
36833;SDS011;48003;52.084;5.224;2023-07-13T04:01:50;11.5;;;3.5;;
36833;SDS011;48003;52.084;5.224;2023-07-13T04:03:26;12.7;;;3.0;;
36833;SDS011;48003;52.084;5.224;2023-07-13T04:06:40;15.3;;;3.6;;
36833;SDS011;48003;52.084;5.224;2023-07-13T04:08:16;12.2;;;2.6;;
36833;SDS011;48003;52.084;5.224;2023-07-13T04:09:52;15.0;;;3.5;;
36833;SDS011;48003;52.084;5.224;2023-07-13T04:13:08;10.0;;;2.9;;
36833;SDS011;48003;52.084;5.224;2023-07-13T04:14:44;14.3;;;3.3;;
36833;SDS011;48003;52.084;5.224;2023-07-13T04:16:20;17.61;;;3.7;;
36833;SDS011;48003;52.084;5.224;2023-07-13T04:19:34;11.3;;;3.4;;
36833;SDS011;48003;52.084;5.224;2023-07-13T04:21:11;13.9;;;3.8;;
36833;SDS011;48003;52.084;5.224;2023-07-13T04:22:47;13.9;;;3.8;;
36833;SDS011;48003;52.084;5.224;2023-07-13T04:24:24;10.0;;;3.0;;
36833;SDS011;48003;52.084;5.224;2023-07-13T04:27:36;13.3;;;3.9;;
36833;SDS011;48003;52.084;5.224;2023-07-13T04:29:12;13.4;;;3.9;;
36833;SDS011;48003;52.084;5.224;2023-07-13T04:30:48;15.3;;;3.9;;
36833;SDS011;48003;52.084;5.224;2023-07-13T04:34:02;13.2;;;3.6;;
36833;SDS011;48003;52.084;5.224;2023-07-13T04:35:38;14.8;;;4.0;;
36833;SDS011;48003;52.084;5.224;2023-07-13T04:37:15;15.7;;;3.8;;
36833;SDS011;48003;52.084;5.224;2023-07-13T04:40:27;13.4;;;3.3;;
36833;SDS011;48003;52.084;5.224;2023-07-13T04:42:04;14.8;;;4.0;;
36833;SDS011;48003;52.084;5.224;2023-07-13T04:43:41;13.3;;;3.4;;
36833;SDS011;48003;52.084;5.224;2023-07-13T04:45:17;11.8;;;3.4;;
36833;SDS011;48003;52.084;5.224;2023-07-13T04:48:30;13.2;;;3.9;;
36833;SDS011;48003;52.084;5.224;2023-07-13T04:50:06;10.5;;;4.0;;
36833;SDS011;48003;52.084;5.224;2023-07-13T04:51:44;13.6;;;3.8;;
36833;SDS011;48003;52.084;5.224;2023-07-13T04:54:56;11.1;;;3.9;;
36833;SDS011;48003;52.084;5.224;2023-07-13T04:56:32;14.4;;;4.61;;
36833;SDS011;48003;52.084;5.224;2023-07-13T04:58:09;13.6;;;4.0;;
36833;SDS011;48003;52.084;5.224;2023-07-13T05:01:21;14.7;;;4.1;;
36833;SDS011;48003;52.084;5.224;2023-07-13T05:02:57;15.6;;;3.8;;
36833;SDS011;48003;52.084;5.224;2023-07-13T05:04:34;15.4;;;4.8;;
36833;SDS011;48003;52.084;5.224;2023-07-13T05:06:10;11.4;;;4.0;;
36833;SDS011;48003;52.084;5.224;2023-07-13T05:09:22;18.8;;;3.8;;
36833;SDS011;48003;52.084;5.224;2023-07-13T05:10:59;11.7;;;4.1;;
36833;SDS011;48003;52.084;5.224;2023-07-13T05:12:36;15.3;;;4.3;;
36833;SDS011;48003;52.084;5.224;2023-07-13T05:15:55;18.41;;;4.2;;
36833;SDS011;48003;52.084;5.224;2023-07-13T05:17:32;13.5;;;4.41;;
36833;SDS011;48003;52.084;5.224;2023-07-13T05:19:09;17.5;;;4.3;;
36833;SDS011;48003;52.084;5.224;2023-07-13T05:22:22;15.7;;;4.1;;
36833;SDS011;48003;52.084;5.224;2023-07-13T05:23:59;17.41;;;4.8;;
36833;SDS011;48003;52.084;5.224;2023-07-13T05:25:35;17.41;;;5.11;;
36833;SDS011;48003;52.084;5.224;2023-07-13T05:27:11;15.1;;;4.5;;
36833;SDS011;48003;52.084;5.224;2023-07-13T05:30:23;18.41;;;5.11;;
36833;SDS011;48003;52.084;5.224;2023-07-13T05:32:00;17.41;;;5.4;;
36833;SDS011;48003;52.084;5.224;2023-07-13T05:33:36;20.41;;;5.5;;
36833;SDS011;48003;52.084;5.224;2023-07-13T05:36:48;14.7;;;4.91;;
36833;SDS011;48003;52.084;5.224;2023-07-13T05:38:25;18.91;;;6.0;;
36833;SDS011;48003;52.084;5.224;2023-07-13T05:40:01;19.8;;;5.8;;
36833;SDS011;48003;52.084;5.224;2023-07-13T05:43:14;21.1;;;6.3;;
36833;SDS011;48003;52.084;5.224;2023-07-13T05:44:51;18.0;;;6.2;;
36833;SDS011;48003;52.084;5.224;2023-07-13T05:46:28;20.0;;;6.3;;
36833;SDS011;48003;52.084;5.224;2023-07-13T05:48:04;18.41;;;6.0;;
36833;SDS011;48003;52.084;5.224;2023-07-13T05:51:16;19.41;;;6.8;;
36833;SDS011;48003;52.084;5.224;2023-07-13T05:52:52;19.0;;;6.0;;
36833;SDS011;48003;52.084;5.224;2023-07-13T05:54:28;16.61;;;5.5;;
36833;SDS011;48003;52.084;5.224;2023-07-13T05:57:41;14.4;;;5.5;;
36833;SDS011;48003;52.084;5.224;2023-07-13T05:59:17;18.2;;;6.0;;
36833;SDS011;48003;52.084;5.224;2023-07-13T06:00:58;23.5;;;6.3;;
36833;SDS011;48003;52.084;5.224;2023-07-13T06:04:12;22.4;;;6.0;;
36833;SDS011;48003;52.084;5.224;2023-07-13T06:05:48;19.41;;;6.0;;
36833;SDS011;48003;52.084;5.224;2023-07-13T06:07:24;17.91;;;5.9;;
36833;SDS011;48003;52.084;5.224;2023-07-13T06:09:01;19.2;;;6.0;;
36833;SDS011;48003;52.084;5.224;2023-07-13T06:12:14;20.5;;;6.7;;
36833;SDS011;48003;52.084;5.224;2023-07-13T06:13:50;25.0;;;6.8;;
36833;SDS011;48003;52.084;5.224;2023-07-13T06:15:27;18.7;;;6.7;;
36833;SDS011;48003;52.084;5.224;2023-07-13T06:18:41;21.3;;;7.2;;
36833;SDS011;48003;52.084;5.224;2023-07-13T06:20:18;21.1;;;7.1;;
36833;SDS011;48003;52.084;5.224;2023-07-13T06:21:54;19.41;;;6.5;;
36833;SDS011;48003;52.084;5.224;2023-07-13T06:25:06;19.0;;;7.4;;
36833;SDS011;48003;52.084;5.224;2023-07-13T06:26:43;21.1;;;7.1;;
36833;SDS011;48003;52.084;5.224;2023-07-13T06:28:19;19.41;;;7.8;;
36833;SDS011;48003;52.084;5.224;2023-07-13T06:29:55;22.9;;;7.8;;
36833;SDS011;48003;52.084;5.224;2023-07-13T06:33:07;25.9;;;8.71;;
36833;SDS011;48003;52.084;5.224;2023-07-13T06:34:43;19.61;;;8.1;;
36833;SDS011;48003;52.084;5.224;2023-07-13T06:36:19;20.5;;;7.6;;
36833;SDS011;48003;52.084;5.224;2023-07-13T06:39:32;21.5;;;8.31;;
36833;SDS011;48003;52.084;5.224;2023-07-13T06:41:09;21.0;;;8.6;;
36833;SDS011;48003;52.084;5.224;2023-07-13T06:42:45;26.4;;;9.31;;
36833;SDS011;48003;52.084;5.224;2023-07-13T06:45:57;24.5;;;8.81;;
36833;SDS011;48003;52.084;5.224;2023-07-13T06:47:34;23.6;;;9.71;;
36833;SDS011;48003;52.084;5.224;2023-07-13T06:49:10;23.7;;;9.4;;
36833;SDS011;48003;52.084;5.224;2023-07-13T06:50:47;23.3;;;9.0;;
36833;SDS011;48003;52.084;5.224;2023-07-13T06:54:01;24.2;;;9.1;;
36833;SDS011;48003;52.084;5.224;2023-07-13T06:55:37;20.6;;;9.1;;
36833;SDS011;48003;52.084;5.224;2023-07-13T06:57:14;24.9;;;9.5;;
36833;SDS011;48003;52.084;5.224;2023-07-13T07:00:26;24.3;;;9.0;;
36833;SDS011;48003;52.084;5.224;2023-07-13T07:02:02;18.7;;;8.71;;
36833;SDS011;48003;52.084;5.224;2023-07-13T07:03:39;21.1;;;9.0;;
36833;SDS011;48003;52.084;5.224;2023-07-13T07:06:52;24.9;;;9.31;;
36833;SDS011;48003;52.084;5.224;2023-07-13T07:08:28;21.6;;;9.31;;
36833;SDS011;48003;52.084;5.224;2023-07-13T07:10:04;21.4;;;8.71;;
36833;SDS011;48003;52.084;5.224;2023-07-13T07:11:41;20.8;;;8.6;;
36833;SDS011;48003;52.084;5.224;2023-07-13T07:14:54;23.9;;;8.71;;
36833;SDS011;48003;52.084;5.224;2023-07-13T07:16:31;23.7;;;8.9;;
36833;SDS011;48003;52.084;5.224;2023-07-13T07:18:07;20.9;;;8.81;;
36833;SDS011;48003;52.084;5.224;2023-07-13T07:21:19;30.0;;;10.0;;
36833;SDS011;48003;52.084;5.224;2023-07-13T07:22:55;20.2;;;9.31;;
36833;SDS011;48003;52.084;5.224;2023-07-13T07:24:31;22.3;;;9.0;;
36833;SDS011;48003;52.084;5.224;2023-07-13T07:27:44;16.9;;;8.4;;
36833;SDS011;48003;52.084;5.224;2023-07-13T07:29:21;23.2;;;9.21;;
36833;SDS011;48003;52.084;5.224;2023-07-13T07:30:57;21.4;;;9.6;;
36833;SDS011;48003;52.084;5.224;2023-07-13T07:34:10;17.8;;;8.6;;
36833;SDS011;48003;52.084;5.224;2023-07-13T07:35:46;21.3;;;8.5;;
36833;SDS011;48003;52.084;5.224;2023-07-13T07:37:22;19.3;;;8.4;;
36833;SDS011;48003;52.084;5.224;2023-07-13T07:42:13;24.1;;;8.9;;
36833;SDS011;48003;52.084;5.224;2023-07-13T07:43:49;19.2;;;7.8;;
36833;SDS011;48003;52.084;5.224;2023-07-13T07:45:26;18.3;;;8.4;;
36833;SDS011;48003;52.084;5.224;2023-07-13T07:48:39;20.9;;;8.31;;
36833;SDS011;48003;52.084;5.224;2023-07-13T07:50:15;18.8;;;8.31;;
36833;SDS011;48003;52.084;5.224;2023-07-13T07:51:52;18.8;;;8.31;;
36833;SDS011;48003;52.084;5.224;2023-07-13T07:55:05;16.8;;;7.5;;
36833;SDS011;48003;52.084;5.224;2023-07-13T07:56:43;20.11;;;8.31;;
36833;SDS011;48003;52.084;5.224;2023-07-13T07:58:20;20.11;;;8.31;;
36833;SDS011;48003;52.084;5.224;2023-07-13T07:59:56;16.5;;;7.4;;
36833;SDS011;48003;52.084;5.224;2023-07-13T08:03:09;17.61;;;7.8;;
36833;SDS011;48003;52.084;5.224;2023-07-13T08:04:46;20.0;;;7.7;;
36833;SDS011;48003;52.084;5.224;2023-07-13T08:06:22;20.2;;;7.4;;
36833;SDS011;48003;52.084;5.224;2023-07-13T08:09:36;20.0;;;7.5;;
36833;SDS011;48003;52.084;5.224;2023-07-13T08:11:12;18.41;;;7.0;;
36833;SDS011;48003;52.084;5.224;2023-07-13T08:12:48;19.0;;;7.2;;
36833;SDS011;48003;52.084;5.224;2023-07-13T08:16:01;14.5;;;6.4;;
36833;SDS011;48003;52.084;5.224;2023-07-13T08:17:40;15.5;;;6.5;;
36833;SDS011;48003;52.084;5.224;2023-07-13T08:19:17;14.8;;;6.0;;
36833;SDS011;48003;52.084;5.224;2023-07-13T08:20:53;15.7;;;6.2;;
36833;SDS011;48003;52.084;5.224;2023-07-13T08:24:07;17.0;;;6.4;;
36833;SDS011;48003;52.084;5.224;2023-07-13T08:25:43;11.5;;;5.3;;
36833;SDS011;48003;52.084;5.224;2023-07-13T08:27:27;8.2;;;4.2;;
36833;SDS011;48003;52.084;5.224;2023-07-13T08:30:40;9.21;;;3.4;;
36833;SDS011;48003;52.084;5.224;2023-07-13T08:32:18;6.9;;;2.31;;
36833;SDS011;48003;52.084;5.224;2023-07-13T08:33:55;3.8;;;1.8;;
36833;SDS011;48003;52.084;5.224;2023-07-13T08:35:31;7.5;;;2.21;;
36833;SDS011;48003;52.084;5.224;2023-07-13T08:38:45;7.0;;;1.9;;
36833;SDS011;48003;52.084;5.224;2023-07-13T08:40:23;4.41;;;2.0;;
36833;SDS011;48003;52.084;5.224;2023-07-13T08:42:01;8.31;;;2.0;;
36833;SDS011;48003;52.084;5.224;2023-07-13T08:43:49;6.5;;;1.9;;
36833;SDS011;48003;52.084;5.224;2023-07-13T08:47:18;3.1;;;1.6;;
36833;SDS011;48003;52.084;5.224;2023-07-13T08:49:02;6.6;;;2.4;;
36833;SDS011;48003;52.084;5.224;2023-07-13T08:50:42;6.0;;;2.21;;
36833;SDS011;48003;52.084;5.224;2023-07-13T08:52:35;6.7;;;2.4;;
36833;SDS011;48003;52.084;5.224;2023-07-13T08:54:18;6.7;;;2.4;;
36833;SDS011;48003;52.084;5.224;2023-07-13T08:57:36;8.4;;;2.7;;
36833;SDS011;48003;52.084;5.224;2023-07-13T08:59:17;6.3;;;2.5;;
36833;SDS011;48003;52.084;5.224;2023-07-13T09:00:59;7.2;;;2.7;;
36833;SDS011;48003;52.084;5.224;2023-07-13T09:02:45;8.2;;;2.7;;
36833;SDS011;48003;52.084;5.224;2023-07-13T09:06:10;6.6;;;2.6;;
36833;SDS011;48003;52.084;5.224;2023-07-13T09:07:55;10.3;;;2.5;;
36833;SDS011;48003;52.084;5.224;2023-07-13T09:09:49;8.1;;;2.6;;
36833;SDS011;48003;52.084;5.224;2023-07-13T09:11:46;8.0;;;2.4;;
36833;SDS011;48003;52.084;5.224;2023-07-13T09:13:31;7.8;;;2.7;;
36833;SDS011;48003;52.084;5.224;2023-07-13T09:15:24;7.8;;;2.8;;
36833;SDS011;48003;52.084;5.224;2023-07-13T09:18:48;10.21;;;2.4;;
36833;SDS011;48003;52.084;5.224;2023-07-13T09:20:28;5.9;;;2.31;;
36833;SDS011;48003;52.084;5.224;2023-07-13T09:22:13;6.6;;;2.7;;
36833;SDS011;48003;52.084;5.224;2023-07-13T09:23:56;6.7;;;2.4;;
36833;SDS011;48003;52.084;5.224;2023-07-13T09:25:59;7.1;;;2.9;;
36833;SDS011;48003;52.084;5.224;2023-07-13T09:27:42;6.7;;;2.5;;
36833;SDS011;48003;52.084;5.224;2023-07-13T09:31:06;6.9;;;2.31;;
36833;SDS011;48003;52.084;5.224;2023-07-13T09:32:49;6.8;;;2.7;;
36833;SDS011;48003;52.084;5.224;2023-07-13T09:34:28;6.3;;;2.5;;
36833;SDS011;48003;52.084;5.224;2023-07-13T09:36:19;5.5;;;2.31;;
36833;SDS011;48003;52.084;5.224;2023-07-13T09:39:46;5.8;;;2.1;;
36833;SDS011;48003;52.084;5.224;2023-07-13T09:41:26;7.5;;;2.1;;
36833;SDS011;48003;52.084;5.224;2023-07-13T09:43:10;7.1;;;2.7;;
36833;SDS011;48003;52.084;5.224;2023-07-13T09:44:52;5.9;;;2.0;;
36833;SDS011;48003;52.084;5.224;2023-07-13T09:46:29;4.1;;;1.9;;
36833;SDS011;48003;52.084;5.224;2023-07-13T09:49:48;5.6;;;2.5;;
36833;SDS011;48003;52.084;5.224;2023-07-13T09:51:31;3.7;;;1.8;;
36833;SDS011;48003;52.084;5.224;2023-07-13T09:53:11;6.0;;;2.5;;
36833;SDS011;48003;52.084;5.224;2023-07-13T09:56:28;5.7;;;2.4;;
36833;SDS011;48003;52.084;5.224;2023-07-13T09:58:08;7.0;;;2.4;;
36833;SDS011;48003;52.084;5.224;2023-07-13T09:59:49;5.2;;;2.31;;
36833;SDS011;48003;52.084;5.224;2023-07-13T10:01:32;4.91;;;2.7;;
36833;SDS011;48003;52.084;5.224;2023-07-13T10:04:55;6.8;;;2.8;;
36833;SDS011;48003;52.084;5.224;2023-07-13T10:06:34;6.3;;;2.8;;
36833;SDS011;48003;52.084;5.224;2023-07-13T10:08:19;5.9;;;2.5;;
36833;SDS011;48003;52.084;5.224;2023-07-13T10:09:58;5.9;;;2.6;;
36833;SDS011;48003;52.084;5.224;2023-07-13T10:11:37;7.2;;;2.5;;
36833;SDS011;48003;52.084;5.224;2023-07-13T10:15:13;5.4;;;2.4;;
36833;SDS011;48003;52.084;5.224;2023-07-13T10:16:59;8.31;;;2.6;;
36833;SDS011;48003;52.084;5.224;2023-07-13T10:18:39;6.2;;;2.8;;
36833;SDS011;48003;52.084;5.224;2023-07-13T10:20:20;7.6;;;2.9;;
36833;SDS011;48003;52.084;5.224;2023-07-13T10:23:37;6.5;;;2.7;;
36833;SDS011;48003;52.084;5.224;2023-07-13T10:25:15;5.6;;;2.7;;
36833;SDS011;48003;52.084;5.224;2023-07-13T10:26:55;8.1;;;3.1;;
36833;SDS011;48003;52.084;5.224;2023-07-13T10:28:51;6.2;;;2.5;;
36833;SDS011;48003;52.084;5.224;2023-07-13T10:30:30;5.4;;;2.6;;
36833;SDS011;48003;52.084;5.224;2023-07-13T10:33:50;7.9;;;2.31;;
36833;SDS011;48003;52.084;5.224;2023-07-13T10:35:28;3.6;;;2.31;;
36833;SDS011;48003;52.084;5.224;2023-07-13T10:37:06;5.11;;;1.7;;
36833;SDS011;48003;52.084;5.224;2023-07-13T10:38:52;5.11;;;2.0;;
36833;SDS011;48003;52.084;5.224;2023-07-13T10:42:13;3.8;;;1.8;;
36833;SDS011;48003;52.084;5.224;2023-07-13T10:44:11;6.5;;;2.21;;
36833;SDS011;48003;52.084;5.224;2023-07-13T10:45:55;4.7;;;2.0;;
36833;SDS011;48003;52.084;5.224;2023-07-13T10:47:32;4.7;;;2.0;;
36833;SDS011;48003;52.084;5.224;2023-07-13T10:50:49;4.5;;;1.7;;
36833;SDS011;48003;52.084;5.224;2023-07-13T10:52:45;6.6;;;2.0;;
36833;SDS011;48003;52.084;5.224;2023-07-13T10:54:26;5.5;;;2.31;;
36833;SDS011;48003;52.084;5.224;2023-07-13T10:56:06;4.3;;;2.31;;
36833;SDS011;48003;52.084;5.224;2023-07-13T10:58:00;6.2;;;2.31;;
36833;SDS011;48003;52.084;5.224;2023-07-13T11:01:14;5.5;;;1.8;;
36833;SDS011;48003;52.084;5.224;2023-07-13T11:02:56;8.6;;;2.8;;
36833;SDS011;48003;52.084;5.224;2023-07-13T11:04:39;5.8;;;2.7;;
36833;SDS011;48003;52.084;5.224;2023-07-13T11:06:28;5.3;;;2.21;;
36833;SDS011;48003;52.084;5.224;2023-07-13T11:08:13;8.0;;;3.0;;
36833;SDS011;48003;52.084;5.224;2023-07-13T11:11:36;8.1;;;2.9;;
36833;SDS011;48003;52.084;5.224;2023-07-13T11:13:35;6.4;;;3.0;;
36833;SDS011;48003;52.084;5.224;2023-07-13T11:15:32;7.5;;;2.8;;
36833;SDS011;48003;52.084;5.224;2023-07-13T11:17:25;9.21;;;3.1;;
36833;SDS011;48003;52.084;5.224;2023-07-13T11:19:28;7.0;;;2.6;;
36833;SDS011;48003;52.084;5.224;2023-07-13T11:21:17;5.9;;;2.8;;
36833;SDS011;48003;52.084;5.224;2023-07-13T11:23:06;10.21;;;3.1;;
36833;SDS011;48003;52.084;5.224;2023-07-13T11:24:58;9.21;;;3.1;;
36833;SDS011;48003;52.084;5.224;2023-07-13T11:28:18;8.6;;;3.3;;
36833;SDS011;48003;52.084;5.224;2023-07-13T11:30:21;9.0;;;3.5;;
36833;SDS011;48003;52.084;5.224;2023-07-13T11:32:00;6.2;;;3.2;;
36833;SDS011;48003;52.084;5.224;2023-07-13T11:33:59;7.4;;;3.3;;
36833;SDS011;48003;52.084;5.224;2023-07-13T11:35:37;11.6;;;3.6;;
36833;SDS011;48003;52.084;5.224;2023-07-13T11:39:02;10.21;;;3.8;;
36833;SDS011;48003;52.084;5.224;2023-07-13T11:40:41;8.1;;;3.6;;
36833;SDS011;48003;52.084;5.224;2023-07-13T11:42:20;8.2;;;3.5;;
36833;SDS011;48003;52.084;5.224;2023-07-13T11:44:05;8.31;;;3.7;;
36833;SDS011;48003;52.084;5.224;2023-07-13T11:45:44;10.21;;;3.4;;
36833;SDS011;48003;52.084;5.224;2023-07-13T11:48:59;9.6;;;4.2;;
36833;SDS011;48003;52.084;5.224;2023-07-13T11:50:35;9.4;;;3.9;;
36833;SDS011;48003;52.084;5.224;2023-07-13T11:52:11;9.81;;;3.7;;
36833;SDS011;48003;52.084;5.224;2023-07-13T11:55:29;8.1;;;3.6;;
36833;SDS011;48003;52.084;5.224;2023-07-13T11:57:06;8.6;;;3.8;;
36833;SDS011;48003;52.084;5.224;2023-07-13T11:59:03;7.5;;;3.4;;
36833;SDS011;48003;52.084;5.224;2023-07-13T12:00:43;9.6;;;3.7;;
36833;SDS011;48003;52.084;5.224;2023-07-13T12:04:06;7.7;;;3.4;;
36833;SDS011;48003;52.084;5.224;2023-07-13T12:05:56;6.3;;;2.8;;
36833;SDS011;48003;52.084;5.224;2023-07-13T12:07:35;6.4;;;3.1;;
36833;SDS011;48003;52.084;5.224;2023-07-13T12:09:13;7.7;;;3.0;;
36833;SDS011;48003;52.084;5.224;2023-07-13T12:11:00;6.0;;;2.5;;
36833;SDS011;48003;52.084;5.224;2023-07-13T12:14:24;9.31;;;2.5;;
36833;SDS011;48003;52.084;5.224;2023-07-13T12:16:00;5.3;;;2.21;;
36833;SDS011;48003;52.084;5.224;2023-07-13T12:17:36;5.8;;;2.6;;
36833;SDS011;48003;52.084;5.224;2023-07-13T12:19:15;4.41;;;2.1;;
36833;SDS011;48003;52.084;5.224;2023-07-13T12:22:34;5.3;;;2.5;;
36833;SDS011;48003;52.084;5.224;2023-07-13T12:24:13;7.4;;;2.5;;
36833;SDS011;48003;52.084;5.224;2023-07-13T12:25:52;4.61;;;2.1;;
36833;SDS011;48003;52.084;5.224;2023-07-13T12:29:05;5.4;;;2.21;;
36833;SDS011;48003;52.084;5.224;2023-07-13T12:30:43;5.3;;;2.21;;
36833;SDS011;48003;52.084;5.224;2023-07-13T12:32:25;5.9;;;2.5;;
36833;SDS011;48003;52.084;5.224;2023-07-13T12:34:03;6.5;;;2.31;;
36833;SDS011;48003;52.084;5.224;2023-07-13T12:37:25;6.9;;;2.4;;
36833;SDS011;48003;52.084;5.224;2023-07-13T12:39:06;5.3;;;2.7;;
36833;SDS011;48003;52.084;5.224;2023-07-13T12:40:49;6.8;;;2.4;;
36833;SDS011;48003;52.084;5.224;2023-07-13T12:42:28;6.1;;;2.4;;
36833;SDS011;48003;52.084;5.224;2023-07-13T12:45:55;4.1;;;2.0;;
36833;SDS011;48003;52.084;5.224;2023-07-13T12:47:39;5.11;;;2.21;;
36833;SDS011;48003;52.084;5.224;2023-07-13T12:49:17;5.3;;;1.9;;
36833;SDS011;48003;52.084;5.224;2023-07-13T12:51:00;4.5;;;1.9;;